Time;durP1;ratioP1;P1;durP2;ratioP2;P2;SDS_P1;SDS_P2;PMS_P1;PMS_P2;Temp;Humidity;BMP_temperature;BMP_pressure;BME280_temperature;BME280_humidity;BME280_pressure;Samples;Min_cycle;Max_cycle;Signal;HPM_P1;HPM_P2
2023/03/21 00:02:17;;;;;;;0.53;0.53;;;;;;;10.80;76.86;99390.50;5028569;28;20220;-67
2023/03/21 00:04:46;;;;;;;0.57;0.57;;;;;;;10.95;76.83;99402.88;5032689;28;20201;-68
2023/03/21 00:07:12;;;;;;;0.50;0.50;;;;;;;10.90;76.88;99394.47;5032436;28;20577;-67
2023/03/21 00:09:39;;;;;;;0.60;0.60;;;;;;;10.87;77.00;99389.44;5032776;28;20201;-67
2023/03/21 00:12:08;;;;;;;0.60;0.60;;;;;;;10.88;77.09;99386.84;5032253;28;20739;-66
2023/03/21 00:14:36;;;;;;;0.50;0.50;;;;;;;10.84;77.26;99380.13;5032460;28;20201;-67
2023/03/21 00:17:03;;;;;;;0.60;0.60;;;;;;;10.82;76.96;99378.50;5032144;28;20202;-67
2023/03/21 00:19:30;;;;;;;0.40;0.40;;;;;;;10.82;77.39;99381.91;5032404;28;20719;-67
2023/03/21 00:22:01;;;;;;;0.50;0.50;;;;;;;10.83;76.89;99383.56;5032166;28;20217;-67
2023/03/21 00:24:27;;;;;;;0.60;0.60;;;;;;;10.76;77.05;99366.69;5032206;28;20205;-67
2023/03/21 00:26:55;;;;;;;0.40;0.40;;;;;;;10.86;77.76;99377.50;5028468;28;20206;-67
2023/03/21 00:29:22;;;;;;;0.60;0.60;;;;;;;10.82;77.55;99370.81;5029583;28;20272;-67
2023/03/21 00:31:48;;;;;;;0.50;0.50;;;;;;;10.83;77.51;99372.47;5032134;28;20219;-67
2023/03/21 00:34:15;;;;;;;0.70;0.70;;;;;;;10.82;77.99;99365.69;5031835;28;20194;-67
2023/03/21 00:36:42;;;;;;;0.53;0.53;;;;;;;10.82;77.64;99363.97;5024822;28;20661;-68
2023/03/21 00:39:10;;;;;;;0.50;0.50;;;;;;;10.83;77.74;99362.22;5031591;28;20639;-67
2023/03/21 00:41:37;;;;;;;0.40;0.40;;;;;;;10.81;78.39;99358.88;5030865;28;20304;-67
2023/03/21 00:44:04;;;;;;;0.60;0.60;;;;;;;10.68;78.54;99326.81;5031586;28;20212;-67
2023/03/21 00:46:31;;;;;;;0.53;0.53;;;;;;;10.82;78.73;99351.13;5031670;28;20220;-67
2023/03/21 00:48:58;;;;;;;0.60;0.60;;;;;;;10.72;78.80;99343.78;5028743;28;20232;-67
2023/03/21 00:51:25;;;;;;;0.90;0.90;;;;;;;10.76;78.91;99340.25;5031439;28;20193;-67
2023/03/21 00:53:54;;;;;;;0.57;0.57;;;;;;;10.75;78.74;99343.69;5027712;28;20202;-67
2023/03/21 00:56:23;;;;;;;0.80;0.80;;;;;;;10.65;78.66;99326.91;5030801;28;20205;-67
2023/03/21 00:58:50;;;;;;;0.67;0.67;;;;;;;10.73;79.20;99340.31;5031510;28;20288;-67
2023/03/21 01:01:17;;;;;;;0.50;0.50;;;;;;;10.73;78.67;99335.19;5026072;28;20704;-67
2023/03/21 01:03:49;;;;;;;0.93;0.83;;;;;;;10.74;79.05;99329.16;5031545;28;20628;-67
2023/03/21 01:06:19;;;;;;;0.97;0.97;;;;;;;10.67;79.50;99320.84;5031319;28;20573;-67
2023/03/21 01:08:47;;;;;;;0.60;0.60;;;;;;;10.69;78.87;99329.34;5031167;28;20205;-67
2023/03/21 01:11:17;;;;;;;0.50;0.50;;;;;;;10.66;79.29;99320.91;5027422;28;20589;-67
2023/03/21 01:13:45;;;;;;;0.60;0.60;;;;;;;10.63;78.91;99321.81;5031231;28;20193;-67
2023/03/21 01:16:13;;;;;;;0.53;0.53;;;;;;;10.63;79.35;99328.69;5031514;28;20197;-67
2023/03/21 01:18:40;;;;;;;0.50;0.50;;;;;;;10.61;79.03;99315.91;5030846;28;20205;-67
2023/03/21 01:21:10;;;;;;;1.03;1.03;;;;;;;10.60;79.33;99308.28;5031131;28;20577;-67
2023/03/21 01:23:41;;;;;;;0.50;0.50;;;;;;;10.62;79.67;99314.19;5030047;28;20194;-67
2023/03/21 01:26:09;;;;;;;0.50;0.50;;;;;;;10.57;79.56;99313.47;5031229;28;20205;-67
2023/03/21 01:28:38;;;;;;;1.33;1.00;;;;;;;10.52;79.63;99299.09;5030520;28;20197;-67
2023/03/21 01:31:07;;;;;;;0.40;0.40;;;;;;;10.41;79.66;99285.78;5030718;28;20197;-67
2023/03/21 01:33:35;;;;;;;0.53;0.53;;;;;;;10.49;80.38;99301.75;5030628;28;20657;-67
2023/03/21 01:36:02;;;;;;;0.50;0.50;;;;;;;10.50;79.96;99300.03;5030714;28;20194;-67
2023/03/21 01:38:29;;;;;;;0.40;0.40;;;;;;;10.53;80.63;99295.63;5029820;28;20209;-67
2023/03/21 01:40:59;;;;;;;0.70;0.70;;;;;;;10.43;80.91;99276.34;5030602;28;20197;-67
2023/03/21 01:43:28;;;;;;;0.50;0.50;;;;;;;10.40;81.31;99276.41;5030639;28;20217;-67
2023/03/21 01:46:36;;;;;;;0.40;0.40;;;;;;;10.41;81.39;99283.22;5030512;28;20200;-67
2023/03/21 01:49:06;;;;;;;0.67;0.67;;;;;;;10.38;81.55;99278.19;5028368;28;20212;-67
2023/03/21 01:51:36;;;;;;;0.50;0.50;;;;;;;10.33;81.54;99279.22;5025801;28;20193;-67
2023/03/21 01:54:05;;;;;;;1.60;0.80;;;;;;;10.18;81.68;99254.91;5027168;28;20205;-67
2023/03/21 01:56:37;;;;;;;0.40;0.40;;;;;;;10.15;81.66;99239.63;5030393;28;20236;-67
2023/03/21 01:59:11;;;;;;;0.50;0.50;;;;;;;10.07;81.46;99220.25;5030576;28;20256;-67
2023/03/21 02:01:41;;;;;;;0.57;0.57;;;;;;;10.24;81.05;99264.94;5030518;28;20712;-67
2023/03/21 02:04:08;;;;;;;0.50;0.50;;;;;;;10.18;81.16;99260.03;5030370;28;20208;-67
2023/03/21 02:06:43;;;;;;;0.60;0.60;;;;;;;10.14;81.64;99262.75;5030453;28;20292;-67
2023/03/21 02:09:13;;;;;;;0.60;0.60;;;;;;;10.13;81.75;99271.28;5028805;28;20197;-67
2023/03/21 02:11:45;;;;;;;0.47;0.47;;;;;;;10.13;81.66;99259.31;5028271;28;20205;-68
2023/03/21 02:14:14;;;;;;;0.50;0.50;;;;;;;10.13;81.62;99250.78;5030558;28;20204;-67
2023/03/21 02:16:50;;;;;;;0.53;0.53;;;;;;;10.09;82.27;99259.44;5030635;28;20204;-67
2023/03/21 02:20:06;;;;;;;0.60;0.60;;;;;;;10.03;83.30;99255.34;5027824;28;20272;-67
2023/03/21 02:23:10;;;;;;;0.50;0.50;;;;;;;9.99;84.15;99258.88;4995186;28;20210;-67
2023/03/21 02:26:11;;;;;;;0.70;0.70;;;;;;;9.95;84.94;99263.25;4993629;28;20252;-67
2023/03/21 02:28:42;;;;;;;0.70;0.70;;;;;;;9.97;85.63;99260.66;5030513;28;20196;-67
2023/03/21 02:31:25;;;;;;;0.63;0.63;;;;;;;9.97;86.20;99265.78;5030404;28;20205;-67
2023/03/21 02:34:24;;;;;;;0.60;0.60;;;;;;;9.98;86.27;99272.59;5026539;28;20256;-67
2023/03/21 02:37:20;;;;;;;0.50;0.50;;;;;;;10.00;86.48;99268.25;5029339;28;20292;-67
2023/03/21 02:39:56;;;;;;;0.50;0.50;;;;;;;9.96;87.27;99275.19;5032787;28;20691;-67
2023/03/21 02:42:30;;;;;;;0.60;0.60;;;;;;;9.88;88.38;99272.00;5050096;28;20596;-67
2023/03/21 02:45:03;;;;;;;0.40;0.40;;;;;;;9.80;88.71;99267.97;5050077;28;20242;-67
2023/03/21 02:47:34;;;;;;;0.60;0.60;;;;;;;9.85;89.05;99271.25;5047230;28;21402;-67
2023/03/21 02:50:09;;;;;;;0.53;0.53;;;;;;;9.91;88.77;99286.44;5029563;28;20197;-67
2023/03/21 02:52:40;;;;;;;0.97;0.97;;;;;;;9.94;89.42;99286.34;5036214;28;20231;-67
2023/03/21 02:55:12;;;;;;;0.60;0.60;;;;;;;9.96;89.44;99289.69;5049747;28;20208;-67
2023/03/21 02:57:42;;;;;;;0.50;0.50;;;;;;;9.99;89.28;99289.59;5050271;28;20203;-67
2023/03/21 03:00:13;;;;;;;0.60;0.60;;;;;;;9.98;89.58;99280.25;5049808;28;20239;-67
2023/03/21 03:02:40;;;;;;;0.50;0.50;;;;;;;9.86;90.36;99289.13;5049720;28;20220;-67
2023/03/21 03:05:16;;;;;;;0.83;0.83;;;;;;;9.88;90.92;99283.97;5052629;28;20638;-67
2023/03/21 03:07:59;;;;;;;0.50;0.50;;;;;;;9.90;91.18;99287.31;5049844;28;20205;-67
2023/03/21 03:10:40;;;;;;;1.20;1.20;;;;;;;9.95;90.68;99290.59;5033462;28;20570;-66
2023/03/21 03:13:17;;;;;;;0.50;0.50;;;;;;;9.97;90.44;99296.50;5033169;28;20197;-67
2023/03/21 03:15:58;;;;;;;0.60;0.60;;;;;;;10.01;90.37;99298.09;5033435;28;20678;-67
2023/03/21 03:18:32;;;;;;;0.50;0.50;;;;;;;10.01;90.57;99304.06;5033242;28;20552;-66
2023/03/21 03:21:06;;;;;;;0.50;0.50;;;;;;;9.96;90.56;99305.91;5033258;28;20210;-67
2023/03/21 03:23:42;;;;;;;0.53;0.53;;;;;;;9.89;90.75;99304.41;5043628;28;20220;-67
2023/03/21 03:26:13;;;;;;;1.20;1.20;;;;;;;9.88;90.30;99301.91;5052902;28;20201;-67
2023/03/21 03:28:45;;;;;;;0.50;0.50;;;;;;;9.83;89.89;99296.06;5053034;28;20668;-67
2023/03/21 03:31:15;;;;;;;0.53;0.53;;;;;;;9.87;89.82;99305.34;5046129;28;20193;-67
2023/03/21 03:33:46;;;;;;;0.50;0.50;;;;;;;9.84;90.11;99300.31;5032516;28;20596;-67
2023/03/21 03:36:16;;;;;;;0.90;0.90;;;;;;;9.82;90.02;99302.06;5033085;28;20624;-67
2023/03/21 03:38:47;;;;;;;0.50;0.50;;;;;;;9.82;90.30;99302.06;5030020;28;20205;-67
2023/03/21 03:41:19;;;;;;;0.60;0.60;;;;;;;9.81;90.10;99291.00;5032856;28;20255;-67
2023/03/21 03:43:49;;;;;;;0.50;0.50;;;;;;;9.82;90.15;99292.66;5031584;28;20221;-67
2023/03/21 03:46:19;;;;;;;0.70;0.70;;;;;;;9.82;89.71;99286.72;5032676;28;20208;-67
2023/03/21 03:48:52;;;;;;;0.50;0.50;;;;;;;9.83;89.47;99278.13;5032528;28;20624;-67
2023/03/21 03:51:24;;;;;;;0.63;0.63;;;;;;;9.82;89.06;99281.59;5032699;28;20216;-67
2023/03/21 03:53:55;;;;;;;0.50;0.50;;;;;;;9.81;88.86;99282.47;5031580;28;20288;-67
2023/03/21 03:56:24;;;;;;;0.63;0.63;;;;;;;9.80;88.61;99280.78;5032361;28;20213;-67
2023/03/21 03:58:51;;;;;;;0.70;0.70;;;;;;;9.63;88.86;99247.19;5032376;28;20221;-67
2023/03/21 04:01:18;;;;;;;0.47;0.47;;;;;;;9.79;88.70;99268.88;5033038;28;20197;-67
2023/03/21 04:03:48;;;;;;;0.60;0.60;;;;;;;9.78;88.99;99269.75;5032194;28;20221;-67
2023/03/21 04:06:16;;;;;;;1.20;1.20;;;;;;;9.68;88.93;99258.09;5028502;28;20232;-67
2023/03/21 04:08:43;;;;;;;0.50;0.50;;;;;;;9.74;88.57;99279.25;5031339;28;20301;-67
2023/03/21 04:11:13;;;;;;;0.60;0.60;;;;;;;9.73;88.29;99276.72;5031372;28;20198;-67
2023/03/21 04:13:40;;;;;;;0.60;0.60;;;;;;;9.59;88.62;99258.38;5031983;28;20669;-67
2023/03/21 04:16:08;;;;;;;1.00;1.00;;;;;;;9.71;88.24;99278.50;5030870;28;20204;-67
2023/03/21 04:18:37;;;;;;;0.50;0.50;;;;;;;9.71;88.12;99287.00;5032313;28;20197;-67
2023/03/21 04:21:08;;;;;;;0.50;0.50;;;;;;;9.65;88.50;99286.34;5031741;28;20286;-67
2023/03/21 04:23:35;;;;;;;0.50;0.50;;;;;;;9.60;88.13;99289.03;5031587;28;20217;-68
2023/03/21 04:26:02;;;;;;;0.60;0.60;;;;;;;9.57;88.73;99290.81;5031651;28;20610;-67
2023/03/21 04:28:30;;;;;;;0.70;0.70;;;;;;;9.58;88.10;99287.41;5032139;28;20202;-67
2023/03/21 04:30:57;;;;;;;0.77;0.77;;;;;;;9.34;88.29;99253.94;5032201;28;20213;-67
2023/03/21 04:33:25;;;;;;;0.60;0.60;;;;;;;9.47;88.45;99288.53;5023595;28;20226;-67
2023/03/21 04:35:54;;;;;;;0.67;0.67;;;;;;;9.27;88.96;99260.09;5011136;28;20202;-67
2023/03/21 04:38:22;;;;;;;0.60;0.60;;;;;;;9.43;89.52;99292.03;5020517;28;20210;-67
2023/03/21 04:40:49;;;;;;;0.60;0.60;;;;;;;9.43;89.29;99292.03;5015913;28;20202;-67
2023/03/21 04:43:15;;;;;;;1.27;1.27;;;;;;;9.43;90.04;99297.16;5019358;28;20576;-67
2023/03/21 04:45:44;;;;;;;0.50;0.50;;;;;;;9.41;89.95;99296.38;5020049;28;20216;-67
2023/03/21 04:48:13;;;;;;;0.40;0.40;;;;;;;9.42;89.76;99303.19;5013044;28;20207;-66
2023/03/21 04:50:39;;;;;;;0.57;0.57;;;;;;;9.41;90.19;99301.50;5024783;28;20205;-68
2023/03/21 04:53:06;;;;;;;1.63;1.63;;;;;;;9.42;90.48;99298.06;5027599;28;20281;-68
2023/03/21 04:55:33;;;;;;;0.83;0.83;;;;;;;9.36;90.51;99293.13;5017629;28;20278;-67
2023/03/21 04:58:00;;;;;;;0.90;0.90;;;;;;;9.42;90.96;99304.91;5019077;28;20198;-67
2023/03/21 05:00:27;;;;;;;0.90;0.90;;;;;;;9.29;91.45;99289.03;5028661;28;20197;-67
2023/03/21 05:02:56;;;;;;;0.53;0.53;;;;;;;9.29;93.20;99299.28;5029709;28;20708;-67
2023/03/21 05:05:24;;;;;;;0.60;0.60;;;;;;;9.23;94.52;99306.25;5031487;28;20198;-65
2023/03/21 05:07:51;;;;;;;0.70;0.70;;;;;;;9.01;97.13;99310.25;5029828;28;20808;-66
2023/03/21 05:10:18;;;;;;;0.53;0.53;;;;;;;8.80;99.92;99312.47;5031604;28;20667;-66
2023/03/21 05:12:45;;;;;;;0.67;0.67;;;;;;;8.88;100.00;99307.16;5031693;28;20205;-66
2023/03/21 05:15:12;;;;;;;0.60;0.60;;;;;;;8.82;100.00;99308.13;5031494;28;20209;-66
2023/03/21 05:17:41;;;;;;;0.60;0.60;;;;;;;8.74;100.00;99311.75;5029764;28;20666;-66
2023/03/21 05:20:11;;;;;;;0.77;0.77;;;;;;;8.70;100.00;99310.16;5024933;28;20277;-66
2023/03/21 05:22:40;;;;;;;0.90;0.90;;;;;;;8.75;100.00;99306.63;5031480;28;20228;-66
2023/03/21 05:25:08;;;;;;;0.60;0.60;;;;;;;8.71;100.00;99293.94;5031829;28;20275;-67
2023/03/21 05:27:36;;;;;;;0.93;0.93;;;;;;;8.82;100.00;99299.66;5030938;28;20206;-67
2023/03/21 05:30:09;;;;;;;0.50;0.50;;;;;;;8.99;100.00;99302.59;5029372;28;20225;-66
2023/03/21 05:32:36;;;;;;;0.70;0.70;;;;;;;9.11;100.00;99302.28;5030652;28;20233;-66
2023/03/21 05:35:03;;;;;;;0.60;0.60;;;;;;;9.18;100.00;99300.41;5031626;28;20197;-66
2023/03/21 05:37:31;;;;;;;1.00;1.00;;;;;;;9.19;100.00;99274.81;5031145;28;20206;-66
2023/03/21 05:39:58;;;;;;;0.70;0.70;;;;;;;9.45;100.00;99297.13;5031565;28;20205;-66
2023/03/21 05:42:25;;;;;;;1.37;1.37;;;;;;;9.56;100.00;99292.56;5031218;28;20202;-66
2023/03/21 05:44:52;;;;;;;0.77;0.77;;;;;;;9.59;100.00;99283.97;5031174;28;20214;-66
2023/03/21 05:47:19;;;;;;;0.67;0.67;;;;;;;9.66;100.00;99270.94;5031474;28;20634;-66
2023/03/21 05:49:46;;;;;;;0.60;0.60;;;;;;;9.82;100.00;99286.72;5023113;28;20205;-66
2023/03/21 05:52:13;;;;;;;0.57;0.57;;;;;;;9.93;100.00;99290.63;5031337;28;20194;-66
2023/03/21 05:54:41;;;;;;;0.50;0.50;;;;;;;9.95;100.00;99282.91;5031278;28;20263;-66
2023/03/21 05:57:08;;;;;;;0.47;0.47;;;;;;;10.17;100.00;99301.91;5031086;28;20213;-65
2023/03/21 05:59:35;;;;;;;0.53;0.53;;;;;;;10.26;100.00;99309.31;5031122;28;20585;-65
2023/03/21 06:02:03;;;;;;;0.40;0.40;;;;;;;10.27;100.00;99305.88;5028978;28;20201;-65
2023/03/21 06:04:30;;;;;;;0.80;0.80;;;;;;;10.38;100.00;99314.06;5026672;28;20593;-66
2023/03/21 06:06:57;;;;;;;0.40;0.40;;;;;;;10.29;100.00;99298.13;5023729;28;20202;-66
2023/03/21 06:09:24;;;;;;;1.17;1.17;;;;;;;10.43;100.00;99311.38;5030675;28;20202;-66
2023/03/21 06:11:55;;;;;;;0.80;0.80;;;;;;;10.40;100.00;99312.28;5021795;28;20300;-67
2023/03/21 06:14:23;;;;;;;0.57;0.57;;;;;;;10.50;100.00;99300.84;5028516;28;20213;-67
2023/03/21 06:16:49;;;;;;;0.80;0.80;;;;;;;10.62;100.00;99309.06;5030745;28;20251;-67
2023/03/21 06:19:16;;;;;;;0.70;0.70;;;;;;;10.65;100.00;99304.69;5011297;28;20594;-67
2023/03/21 06:21:43;;;;;;;0.60;0.60;;;;;;;10.71;100.00;99301.06;5029019;28;20659;-66
2023/03/21 06:24:10;;;;;;;0.87;0.87;;;;;;;10.53;100.00;99277.69;5028059;28;20217;-67
2023/03/21 06:26:37;;;;;;;0.40;0.40;;;;;;;10.81;100.00;99305.00;5024729;28;20201;-66
2023/03/21 06:29:05;;;;;;;0.90;0.90;;;;;;;10.89;100.00;99309.00;5025105;28;20209;-66
2023/03/21 06:31:32;;;;;;;0.60;0.60;;;;;;;10.94;100.00;99301.16;5029756;28;20217;-66
2023/03/21 06:33:59;;;;;;;0.60;0.60;;;;;;;10.92;100.00;99302.94;5026951;28;20708;-65
2023/03/21 06:36:26;;;;;;;0.50;0.50;;;;;;;10.93;100.00;99309.72;5026780;28;20285;-66
2023/03/21 06:38:52;;;;;;;0.77;0.77;;;;;;;10.95;100.00;99320.81;5030395;28;20201;-66
2023/03/21 06:41:19;;;;;;;0.90;0.90;;;;;;;11.04;100.00;99315.38;5031249;28;20210;-65
2023/03/21 06:43:47;;;;;;;0.50;0.50;;;;;;;11.11;100.00;99316.00;5034665;28;20275;-65
2023/03/21 06:46:15;;;;;;;0.50;0.50;;;;;;;11.21;100.00;99317.38;5031697;28;20280;-65
2023/03/21 06:48:43;;;;;;;0.50;0.50;;;;;;;11.24;100.00;99312.97;5031051;28;20220;-70
2023/03/21 06:51:11;;;;;;;0.70;0.70;;;;;;;11.34;100.00;99313.50;5022216;28;20206;-65
2023/03/21 06:53:40;;;;;;;0.67;0.67;;;;;;;11.40;100.00;99320.97;5025474;28;20233;-66
2023/03/21 06:56:08;;;;;;;1.20;1.20;;;;;;;11.40;100.00;99314.13;5025140;28;20629;-66
2023/03/21 06:58:35;;;;;;;0.50;0.50;;;;;;;11.45;100.00;99317.34;5033349;28;20550;-68
2023/03/21 07:01:02;;;;;;;0.80;0.80;;;;;;;11.53;100.00;99312.75;5032277;28;20688;-66
2023/03/21 07:03:31;;;;;;;0.50;0.50;;;;;;;11.52;100.00;99317.97;5034827;28;20589;-65
2023/03/21 07:05:58;;;;;;;0.83;0.83;;;;;;;11.60;100.00;99313.38;5031817;28;20197;-65
2023/03/21 07:08:25;;;;;;;1.33;1.33;;;;;;;11.57;100.00;99316.91;5027826;28;20211;-66
2023/03/21 07:10:56;;;;;;;0.60;0.60;;;;;;;11.65;100.00;99329.47;5032313;28;20216;-66
2023/03/21 07:13:23;;;;;;;0.43;0.43;;;;;;;11.80;100.00;99333.25;5031778;28;20201;-67
2023/03/21 07:15:49;;;;;;;2.00;1.20;;;;;;;11.90;100.00;99324.31;5029560;28;20205;-67
2023/03/21 07:18:16;;;;;;;1.27;1.27;;;;;;;11.95;100.00;99327.56;5029663;28;20205;-65
2023/03/21 07:20:49;;;;;;;0.50;0.50;;;;;;;12.04;100.00;99327.22;5028055;28;20538;-67
2023/03/21 07:23:16;;;;;;;1.27;0.80;;;;;;;12.19;100.00;99324.06;5030974;28;20222;-66
2023/03/21 07:25:43;;;;;;;0.50;0.50;;;;;;;12.34;100.00;99326.06;5028310;28;20202;-66
2023/03/21 07:28:10;;;;;;;0.50;0.50;;;;;;;12.41;99.73;99312.06;5027615;28;20209;-67
2023/03/21 07:30:37;;;;;;;0.70;0.70;;;;;;;12.56;99.83;99318.38;5025613;28;20201;-67
2023/03/21 07:33:04;;;;;;;0.80;0.80;;;;;;;12.73;99.91;99320.28;5037663;28;20237;-66
2023/03/21 07:35:31;;;;;;;0.70;0.70;;;;;;;12.88;98.66;99322.22;5050283;28;20223;-65
2023/03/21 07:37:59;;;;;;;0.50;0.50;;;;;;;13.02;97.66;99319.94;5053902;28;20214;-65
2023/03/21 07:40:26;;;;;;;0.70;0.70;;;;;;;13.12;97.85;99323.78;5050230;28;20205;-65
2023/03/21 07:42:53;;;;;;;1.07;1.07;;;;;;;13.22;95.42;99317.38;5036961;28;20197;-65
2023/03/21 07:45:22;;;;;;;1.03;1.03;;;;;;;13.35;94.13;99313.38;5040738;28;20212;-68
2023/03/21 07:47:49;;;;;;;0.60;0.60;;;;;;;13.44;94.27;99310.41;5041575;28;20204;-67
2023/03/21 07:50:17;;;;;;;1.33;1.33;;;;;;;13.54;92.67;99311.69;5041265;28;20205;-67
2023/03/21 07:52:44;;;;;;;0.77;0.77;;;;;;;13.57;92.06;99308.16;5035260;28;20208;-67
2023/03/21 07:55:12;;;;;;;0.50;0.50;;;;;;;13.57;91.96;99308.97;5036880;28;20241;-67
2023/03/21 07:57:39;;;;;;;0.70;0.70;;;;;;;13.64;92.50;99307.81;5035322;28;20562;-66
2023/03/21 08:00:09;;;;;;;0.60;0.60;;;;;;;13.66;91.39;99305.16;5035461;28;20214;-67
2023/03/21 08:02:36;;;;;;;0.50;0.50;;;;;;;13.75;91.57;99306.50;5043384;28;20209;-67
2023/03/21 08:05:03;;;;;;;0.87;0.87;;;;;;;13.81;91.88;99301.91;5032428;28;20225;-66
2023/03/21 08:07:31;;;;;;;2.87;1.80;;;;;;;13.84;90.41;99300.91;5034685;28;20208;-68
2023/03/21 08:09:58;;;;;;;1.10;0.70;;;;;;;13.83;90.13;99297.50;5031928;28;20198;-68
2023/03/21 08:12:27;;;;;;;1.00;1.00;;;;;;;13.81;90.32;99293.34;5044003;28;20677;-68
2023/03/21 08:14:58;;;;;;;0.50;0.50;;;;;;;13.72;90.19;99291.16;5048462;28;20194;-67
2023/03/21 08:17:25;;;;;;;1.27;1.27;;;;;;;13.74;89.97;99292.78;5039255;28;20201;-66
2023/03/21 08:19:52;;;;;;;2.03;0.80;;;;;;;13.83;89.33;99299.28;5039471;28;20741;-65
2023/03/21 08:22:19;;;;;;;0.60;0.60;;;;;;;13.91;89.84;99302.31;5045443;28;20213;-67
2023/03/21 08:24:45;;;;;;;1.83;1.83;;;;;;;13.97;89.94;99296.88;5036727;28;20600;-67
2023/03/21 08:27:12;;;;;;;0.70;0.70;;;;;;;14.03;89.12;99299.19;5040947;28;20204;-66
2023/03/21 08:29:41;;;;;;;0.60;0.60;;;;;;;13.99;89.17;99301.06;5044293;28;20199;-66
2023/03/21 08:32:08;;;;;;;0.80;0.80;;;;;;;13.96;89.09;99305.50;5034804;28;20230;-67
2023/03/21 08:34:35;;;;;;;0.40;0.40;;;;;;;14.09;89.15;99306.63;5037945;28;20197;-67
2023/03/21 08:37:02;;;;;;;0.63;0.63;;;;;;;14.24;87.56;99313.69;5043257;28;20744;-66
2023/03/21 08:39:29;;;;;;;0.90;0.90;;;;;;;14.24;87.37;99303.38;5052743;28;20653;-66
2023/03/21 08:41:56;;;;;;;0.50;0.50;;;;;;;14.25;87.39;99307.59;5052780;28;20300;-66
2023/03/21 08:44:24;;;;;;;1.00;1.00;;;;;;;14.28;87.04;99301.47;5034096;28;20217;-66
2023/03/21 08:46:53;;;;;;;0.43;0.43;;;;;;;14.33;87.73;99295.22;5032793;28;20210;-66
2023/03/21 08:49:19;;;;;;;0.80;0.80;;;;;;;14.32;86.98;99296.09;5032822;28;20630;-66
2023/03/21 08:51:46;;;;;;;0.50;0.50;;;;;;;14.46;86.49;99296.31;5041145;28;20208;-66
2023/03/21 08:54:20;;;;;;;0.97;0.87;;;;;;;14.56;85.47;99305.31;5052562;28;20207;-66
2023/03/21 08:56:47;;;;;;;0.60;0.60;;;;;;;14.68;84.54;99293.53;5012774;28;20206;-66
2023/03/21 08:59:15;;;;;;;0.50;0.50;;;;;;;14.75;84.89;99291.50;5045226;28;20207;-66
2023/03/21 09:01:42;;;;;;;0.60;0.60;;;;;;;14.83;85.63;99294.56;5052068;28;20208;-66
2023/03/21 09:04:10;;;;;;;0.50;0.50;;;;;;;14.73;85.82;99288.16;5052364;28;20645;-66
2023/03/21 09:06:37;;;;;;;0.83;0.83;;;;;;;14.80;84.64;99286.97;5052274;28;20204;-66
2023/03/21 09:09:06;;;;;;;0.60;0.60;;;;;;;14.77;85.40;99280.19;5045372;28;20213;-66
2023/03/21 09:12:03;;;;;;;0.67;0.67;;;;;;;14.92;84.77;99284.63;5035980;28;20204;-66
2023/03/21 09:14:29;;;;;;;0.50;0.50;;;;;;;15.02;85.74;99280.66;5042650;28;20203;-66
2023/03/21 09:16:56;;;;;;;0.60;0.60;;;;;;;15.09;84.93;99284.59;5052111;28;20200;-66
2023/03/21 09:19:25;;;;;;;0.40;0.40;;;;;;;15.08;84.26;99290.69;5046322;28;20204;-66
2023/03/21 09:21:52;;;;;;;0.50;0.50;;;;;;;15.20;84.30;99286.63;5047422;28;20229;-66
2023/03/21 09:24:20;;;;;;;0.60;0.60;;;;;;;15.27;84.01;99280.25;5031952;28;20236;-67
2023/03/21 09:26:49;;;;;;;0.50;0.50;;;;;;;15.31;84.35;99276.59;5025271;28;20292;-66
2023/03/21 09:29:17;;;;;;;0.43;0.43;;;;;;;15.15;83.86;99276.53;5038006;28;20199;-66
2023/03/21 09:31:45;;;;;;;0.50;0.50;;;;;;;15.16;83.91;99278.19;5042050;28;20666;-66
2023/03/21 09:34:13;;;;;;;0.50;0.50;;;;;;;15.12;83.81;99278.47;5031854;28;20247;-66
2023/03/21 09:36:43;;;;;;;0.50;0.50;;;;;;;15.13;83.21;99274.94;5031713;28;20701;-65
2023/03/21 09:39:10;;;;;;;0.50;0.50;;;;;;;15.21;83.91;99270.25;5031964;28;20673;-66
2023/03/21 09:42:10;;;;;;;0.60;0.60;;;;;;;15.25;84.16;99271.72;5031776;28;20209;-65
2023/03/21 09:44:50;;;;;;;0.57;0.57;;;;;;;15.42;83.64;99268.28;5031506;28;20225;-66
2023/03/21 09:47:21;;;;;;;0.60;0.60;;;;;;;15.50;82.58;99261.00;5031924;28;20259;-66
2023/03/21 09:49:52;;;;;;;1.13;1.13;;;;;;;15.47;83.43;99255.97;5031691;28;20208;-66
2023/03/21 09:52:24;;;;;;;0.50;0.50;;;;;;;15.51;83.27;99253.16;5031888;28;20655;-66
2023/03/21 09:54:54;;;;;;;0.60;0.60;;;;;;;15.53;83.24;99255.69;5031713;28;20772;-66
2023/03/21 09:57:31;;;;;;;0.70;0.70;;;;;;;15.67;83.24;99259.19;5031573;28;20280;-66
2023/03/21 10:00:07;;;;;;;1.20;1.20;;;;;;;15.93;83.53;99262.16;5031552;28;20237;-65
2023/03/21 10:02:38;;;;;;;0.60;0.60;;;;;;;16.11;82.00;99258.56;5031591;28;20209;-65
2023/03/21 10:05:16;;;;;;;0.87;0.87;;;;;;;16.23;81.27;99250.13;5031648;28;20731;-66
2023/03/21 10:07:49;;;;;;;0.90;0.90;;;;;;;16.38;79.90;99244.09;5031442;28;20265;-66
2023/03/21 10:10:19;;;;;;;0.80;0.80;;;;;;;16.48;81.64;99237.47;5031516;28;20193;-66
2023/03/21 10:12:49;;;;;;;0.60;0.60;;;;;;;16.52;78.80;99228.63;5032218;28;20205;-66
2023/03/21 10:15:20;;;;;;;0.60;0.60;;;;;;;16.64;79.86;99235.72;5035585;28;20681;-66
2023/03/21 10:17:52;;;;;;;1.27;1.27;;;;;;;16.86;79.77;99250.03;5035481;28;20263;-66
2023/03/21 10:20:22;;;;;;;0.57;0.57;;;;;;;17.00;77.67;99239.66;5035641;28;20705;-66
2023/03/21 10:23:08;;;;;;;1.20;1.20;;;;;;;17.14;74.54;99237.94;5035500;28;20205;-65
2023/03/21 10:25:37;;;;;;;0.57;0.57;;;;;;;17.28;77.74;99221.59;5035304;28;20703;-66
2023/03/21 10:28:07;;;;;;;0.73;0.73;;;;;;;17.34;75.07;99234.16;5035472;28;20278;-66
2023/03/21 10:30:40;;;;;;;0.60;0.60;;;;;;;17.51;76.68;99226.19;5035181;28;20704;-66
2023/03/21 10:33:13;;;;;;;1.03;1.03;;;;;;;17.53;73.47;99219.16;5035382;28;20608;-65
2023/03/21 10:35:44;;;;;;;0.70;0.70;;;;;;;17.64;71.88;99226.31;5035282;28;20212;-67
2023/03/21 10:38:16;;;;;;;0.60;0.60;;;;;;;17.63;71.64;99204.75;5035155;28;20222;-66
2023/03/21 10:40:43;;;;;;;0.57;0.57;;;;;;;17.68;70.87;99217.41;5035244;28;20674;-66
2023/03/21 10:43:32;;;;;;;1.37;1.37;;;;;;;17.66;70.91;99214.09;5035142;28;20588;-66
2023/03/21 10:46:07;;;;;;;0.60;0.60;;;;;;;17.65;71.99;99202.88;5034916;28;20233;-66
2023/03/21 10:48:36;;;;;;;0.47;0.47;;;;;;;17.78;72.18;99198.59;5034889;28;20211;-65
2023/03/21 10:51:08;;;;;;;0.60;0.60;;;;;;;17.72;72.21;99198.97;5034600;28;20205;-61
2023/03/21 10:53:40;;;;;;;0.70;0.70;;;;;;;17.62;72.44;99184.94;5031487;28;20209;-61
2023/03/21 10:56:10;;;;;;;0.70;0.70;;;;;;;17.64;71.65;99196.03;5034344;28;20577;-61
2023/03/21 10:58:41;;;;;;;0.50;0.50;;;;;;;17.63;71.48;99191.78;5034412;28;20270;-62
2023/03/21 11:01:14;;;;;;;0.70;0.70;;;;;;;17.73;71.25;99184.25;5034182;28;20205;-61
2023/03/21 11:03:45;;;;;;;0.70;0.70;;;;;;;17.70;70.99;99184.47;5034327;28;20248;-62
2023/03/21 11:06:16;;;;;;;0.90;0.90;;;;;;;17.78;71.36;99179.59;5033961;28;20268;-62
2023/03/21 11:08:49;;;;;;;1.33;1.33;;;;;;;17.79;70.55;99169.16;5033795;28;20197;-62
2023/03/21 11:11:26;;;;;;;0.40;0.40;;;;;;;17.89;70.81;99161.63;5034258;28;20207;-61
2023/03/21 11:13:58;;;;;;;1.03;1.03;;;;;;;18.00;71.76;99155.72;5032248;28;20596;-61
2023/03/21 11:16:30;;;;;;;1.17;1.17;;;;;;;17.84;70.10;99135.13;5030373;28;20198;-61
2023/03/21 11:19:01;;;;;;;0.40;0.40;;;;;;;17.76;70.05;99134.81;5030986;28;20203;-61
2023/03/21 11:21:35;;;;;;;0.63;0.63;;;;;;;17.75;70.81;99133.97;5033393;28;20205;-62
2023/03/21 11:24:05;;;;;;;0.60;0.60;;;;;;;17.85;69.47;99142.00;5026703;28;20205;-62
2023/03/21 11:26:36;;;;;;;0.60;0.60;;;;;;;17.94;67.67;99140.56;5029051;28;20661;-62
2023/03/21 11:29:17;;;;;;;0.70;0.70;;;;;;;17.91;67.74;99136.41;5025261;28;20230;-62
2023/03/21 11:31:44;;;;;;;0.70;0.70;;;;;;;18.03;68.05;99129.63;5027991;28;20720;-61
2023/03/21 11:34:26;;;;;;;0.70;0.70;;;;;;;18.09;68.63;99139.59;5022761;28;20230;-62
2023/03/21 11:36:57;;;;;;;0.70;0.70;;;;;;;18.14;66.68;99138.34;5025541;28;20718;-61
2023/03/21 11:39:44;;;;;;;0.52;0.52;;;;;;;18.09;64.93;99124.88;5033026;28;20416;-65
2023/03/21 11:42:29;;;;;;;0.70;0.70;;;;;;;18.11;64.95;99122.16;5028060;28;20428;-64
2023/03/21 11:45:02;;;;;;;0.50;0.50;;;;;;;18.23;64.49;99121.34;5028380;28;20229;-64
2023/03/21 11:47:30;;;;;;;0.40;0.40;;;;;;;18.35;64.52;99115.38;5029915;28;20209;-64
2023/03/21 11:49:57;;;;;;;0.57;0.57;;;;;;;18.45;63.90;99108.59;5029359;28;20673;-64